createdAt,value
2023-05-22T00:03:05.128Z,11.98
2023-05-22T00:08:29.537Z,8.02
2023-05-22T00:13:52.014Z,5.57
2023-05-22T00:19:17.063Z,7.93
2023-05-22T00:24:39.020Z,9.25
2023-05-22T00:30:01.565Z,7.57
2023-05-22T00:35:23.831Z,5.97
2023-05-22T00:40:45.879Z,8.88
2023-05-22T00:46:08.164Z,7.25
2023-05-22T00:51:30.215Z,5.85
2023-05-22T00:56:52.332Z,8.80
2023-05-22T01:02:16.694Z,9.13
2023-05-22T01:07:38.829Z,6.78
2023-05-22T01:13:12.487Z,11.43
2023-05-22T01:19:03.030Z,7.80
2023-05-22T01:24:53.421Z,7.53
2023-05-22T01:30:37.498Z,6.20
2023-05-22T01:36:02.553Z,7.20
2023-05-22T01:41:24.666Z,6.67
2023-05-22T01:46:46.570Z,7.18
2023-05-22T01:52:20.138Z,5.90
2023-05-22T01:58:03.196Z,7.90
2023-05-22T02:03:30.239Z,7.70
2023-05-22T02:08:53.674Z,6.15
2023-05-22T02:14:16.402Z,6.82
2023-05-22T02:19:38.367Z,7.68
2023-05-22T02:25:00.384Z,7.88
2023-05-22T02:30:22.277Z,7.93
2023-05-22T02:35:45.076Z,8.38
2023-05-22T02:41:08.214Z,7.80
2023-05-22T02:46:30.158Z,6.75
2023-05-22T02:51:52.068Z,7.88
2023-05-22T02:57:13.908Z,7.97
2023-05-22T03:02:36.833Z,6.38
2023-05-22T03:07:59.194Z,8.57
2023-05-22T03:13:21.120Z,7.30
2023-05-22T03:18:42.977Z,8.60
2023-05-22T03:24:05.676Z,6.80
2023-05-22T03:29:27.503Z,5.47
2023-05-22T03:34:49.296Z,7.00
2023-05-22T03:40:11.388Z,6.22
2023-05-22T03:45:33.266Z,7.10
2023-05-22T03:50:55.278Z,8.48
2023-05-22T03:56:17.262Z,9.00
2023-05-22T04:01:39.486Z,8.43
2023-05-22T04:07:02.910Z,7.07
2023-05-22T04:12:24.765Z,6.10
2023-05-22T04:17:48.121Z,5.32
2023-05-22T04:23:10.256Z,7.40
2023-05-22T04:28:32.308Z,7.05
2023-05-22T04:33:55.059Z,8.73
2023-05-22T04:39:17.423Z,6.97
2023-05-22T04:44:39.203Z,7.43
2023-05-22T04:50:02.738Z,6.72
2023-05-22T04:55:25.243Z,4.88
2023-05-22T05:00:47.149Z,7.90
2023-05-22T05:06:09.037Z,7.28
2023-05-22T05:11:31.520Z,9.05
2023-05-22T05:16:53.592Z,7.03
2023-05-22T05:22:15.643Z,6.75
2023-05-22T05:27:37.653Z,10.02
2023-05-22T05:32:59.541Z,14.32
2023-05-22T05:38:21.511Z,16.02
2023-05-22T05:43:43.382Z,16.80
2023-05-22T05:49:12.263Z,15.05
2023-05-22T05:54:34.152Z,18.00
2023-05-22T05:59:56.052Z,11.23
2023-05-22T06:05:19.541Z,20.52
2023-05-22T06:10:41.749Z,14.52
2023-05-22T06:16:05.839Z,16.85
2023-05-22T06:21:28.589Z,16.70
2023-05-22T06:26:50.491Z,17.63
2023-05-22T06:32:12.333Z,14.90
2023-05-22T06:37:36.037Z,25.23
2023-05-22T06:42:59.278Z,18.48
2023-05-22T06:48:21.160Z,18.38
2023-05-22T06:53:43.388Z,18.98
2023-05-22T06:59:06.320Z,17.98
2023-05-22T07:04:28.282Z,17.63
2023-05-22T07:09:50.184Z,16.77
2023-05-22T07:15:14.839Z,23.80
2023-05-22T07:20:39.880Z,21.90
2023-05-22T07:26:01.855Z,22.63
2023-05-22T07:31:23.725Z,25.85
2023-05-22T07:36:45.691Z,24.83
2023-05-22T07:42:08.011Z,28.30
2023-05-22T07:47:29.893Z,27.55
2023-05-22T07:52:52.012Z,27.75
2023-05-22T07:58:14.089Z,25.80
2023-05-22T08:03:36.232Z,33.03
2023-05-22T08:08:58.352Z,28.50
2023-05-22T08:14:22.233Z,34.85
2023-05-22T08:19:44.148Z,35.55
2023-05-22T08:25:06.782Z,32.78
2023-05-22T08:30:29.040Z,38.80
2023-05-22T08:35:51.387Z,41.00
2023-05-22T08:41:14.144Z,41.88
2023-05-22T08:46:38.515Z,46.55
2023-05-22T08:52:12.954Z,74.22
2023-05-22T08:57:36.248Z,62.05
2023-05-22T09:02:58.396Z,63.42
2023-05-22T09:08:21.344Z,57.45
2023-05-22T09:13:44.951Z,56.65
2023-05-22T09:19:06.927Z,53.17
2023-05-22T09:24:29.009Z,57.40
2023-05-22T09:29:52.641Z,53.85
2023-05-22T09:35:14.905Z,55.78
2023-05-22T09:40:43.409Z,57.17
2023-05-22T09:46:05.608Z,52.60
2023-05-22T09:51:28.020Z,48.78
2023-05-22T09:56:51.184Z,51.17
2023-05-22T10:02:13.852Z,49.83
2023-05-22T10:07:41.509Z,66.07
2023-05-22T10:13:06.989Z,55.22
2023-05-22T10:23:52.605Z,52.45
2023-05-22T10:29:22.572Z,44.08
2023-05-22T10:34:56.539Z,48.05
2023-05-22T10:40:29.016Z,48.55
2023-05-22T10:46:02.704Z,47.15
2023-05-22T10:51:25.322Z,50.03
2023-05-22T10:56:47.323Z,50.97
2023-05-22T11:02:30.020Z,45.85
2023-05-22T11:07:51.986Z,51.45
2023-05-22T11:13:14.098Z,52.10
2023-05-22T11:18:36.337Z,48.90
2023-05-22T11:24:01.425Z,55.97
2023-05-22T11:29:24.283Z,48.53
2023-05-22T11:34:47.761Z,52.80
2023-05-22T11:40:11.198Z,55.08
2023-05-22T11:45:37.940Z,51.42
2023-05-22T11:50:59.964Z,51.70
2023-05-22T11:56:25.080Z,44.42
2023-05-22T12:01:50.254Z,47.22
2023-05-22T12:07:12.541Z,52.58
2023-05-22T12:12:34.545Z,57.00
2023-05-22T12:17:56.725Z,51.15
2023-05-22T12:23:25.953Z,50.65
2023-05-22T12:28:47.935Z,51.40
2023-05-22T12:34:09.945Z,43.97
2023-05-22T12:39:31.858Z,44.17
2023-05-22T12:44:54.629Z,43.40
2023-05-22T12:50:16.601Z,43.58
2023-05-22T12:55:39.339Z,44.45
2023-05-22T13:01:01.407Z,43.47
2023-05-22T13:06:23.230Z,42.03
2023-05-22T13:11:45.142Z,45.80
2023-05-22T13:17:07.180Z,42.42
2023-05-22T13:22:29.328Z,48.25
2023-05-22T13:27:51.229Z,43.08
2023-05-22T13:33:13.839Z,42.88
2023-05-22T13:38:35.658Z,47.22
2023-05-22T13:43:57.641Z,43.47
2023-05-22T13:49:19.966Z,40.88
2023-05-22T13:54:41.872Z,41.97
2023-05-22T14:00:04.349Z,40.33
2023-05-22T14:05:26.285Z,40.70
2023-05-22T14:10:48.253Z,38.38
2023-05-22T14:16:10.235Z,39.97
2023-05-22T14:21:32.133Z,36.65
2023-05-22T14:26:58.247Z,37.50
2023-05-22T14:32:20.146Z,35.70
2023-05-22T14:37:42.105Z,35.97
2023-05-22T14:43:04.026Z,34.63
2023-05-22T14:48:26.997Z,32.40
2023-05-22T14:53:49.186Z,36.00
2023-05-22T14:59:12.113Z,32.72
2023-05-22T15:04:34.099Z,33.65
2023-05-22T15:09:56.791Z,29.85
2023-05-22T15:15:18.713Z,33.42
2023-05-22T15:20:40.572Z,27.30
2023-05-22T15:26:02.628Z,36.50
2023-05-22T15:31:24.504Z,28.38
2023-05-22T15:36:46.376Z,27.05
2023-05-22T15:42:08.579Z,40.05
2023-05-22T15:47:30.476Z,43.35
2023-05-22T15:52:52.329Z,47.83
2023-05-22T15:58:14.138Z,44.10
2023-05-22T16:03:36.122Z,42.10
2023-05-22T16:08:58.245Z,41.10
2023-05-22T16:14:20.114Z,37.58
2023-05-22T16:19:41.983Z,45.55
2023-05-22T16:25:03.986Z,38.67
2023-05-22T16:30:26.075Z,40.03
2023-05-22T16:35:48.120Z,36.38
2023-05-22T16:41:10.034Z,34.17
2023-05-22T16:46:31.956Z,39.20
2023-05-22T16:51:53.819Z,44.00
2023-05-22T16:57:16.531Z,44.65
2023-05-22T17:02:38.729Z,47.42
2023-05-22T17:08:00.970Z,52.67
2023-05-22T17:13:22.944Z,60.33
2023-05-22T17:18:44.786Z,58.30
2023-05-22T17:24:06.785Z,62.95
2023-05-22T17:29:28.986Z,79.10
2023-05-22T17:34:50.935Z,98.10
2023-05-22T17:40:12.892Z,89.70
2023-05-22T17:45:35.271Z,71.80
2023-05-22T17:50:57.070Z,81.43
2023-05-22T17:56:18.967Z,71.05
2023-05-22T18:01:41.353Z,64.07
2023-05-22T18:07:03.236Z,65.95
2023-05-22T18:12:31.806Z,72.57
2023-05-22T18:17:54.219Z,64.95
2023-05-22T18:23:16.360Z,74.13
2023-05-22T18:28:38.262Z,60.78
2023-05-22T18:34:00.206Z,64.70
2023-05-22T18:39:22.178Z,65.10
2023-05-22T18:44:44.032Z,59.95
2023-05-22T18:50:06.604Z,60.95
2023-05-22T18:55:28.570Z,55.40
2023-05-22T19:00:52.336Z,45.13
2023-05-22T19:06:14.196Z,64.57
2023-05-22T19:11:36.501Z,63.70
2023-05-22T19:17:00.990Z,51.60
2023-05-22T19:22:24.450Z,55.50
2023-05-22T19:27:47.805Z,45.15
2023-05-22T19:33:10.869Z,48.60
2023-05-22T19:38:32.990Z,44.17
2023-05-22T19:43:55.479Z,45.03
2023-05-22T19:49:17.509Z,43.33
2023-05-22T19:54:40.086Z,40.30
2023-05-22T20:00:02.678Z,32.70
2023-05-22T20:05:25.282Z,44.22
2023-05-22T20:10:47.641Z,37.97
2023-05-22T20:16:12.826Z,31.17
2023-05-22T20:26:57.188Z,34.60
2023-05-22T20:32:19.016Z,34.25
2023-05-22T20:37:42.000Z,61.90
2023-05-22T20:43:03.942Z,34.13
2023-05-22T20:48:25.849Z,30.98
2023-05-22T20:53:52.721Z,25.33
2023-05-22T20:59:14.845Z,28.00
2023-05-22T21:04:37.266Z,30.48
2023-05-22T21:09:59.051Z,27.25
2023-05-22T21:15:21.108Z,19.65
2023-05-22T21:20:42.990Z,29.55
2023-05-22T21:26:05.008Z,21.48
2023-05-22T21:31:27.044Z,21.05
2023-05-22T21:36:49.974Z,23.75
2023-05-22T21:42:11.926Z,26.95
2023-05-22T21:47:34.064Z,20.83
2023-05-22T21:52:56.082Z,17.15
2023-05-22T21:58:18.528Z,19.17
2023-05-22T22:03:40.583Z,15.57
2023-05-22T22:09:03.815Z,19.00
2023-05-22T22:14:25.751Z,23.67
2023-05-22T22:19:47.677Z,22.27
2023-05-22T22:25:09.844Z,24.42
2023-05-22T22:30:31.855Z,21.15
2023-05-22T22:35:54.088Z,23.67
2023-05-22T22:41:15.963Z,25.13
2023-05-22T22:46:38.193Z,29.88
2023-05-22T22:52:00.149Z,23.88
2023-05-22T22:57:21.971Z,25.83
2023-05-22T23:02:44.021Z,21.70
2023-05-22T23:08:06.149Z,23.45
2023-05-22T23:13:27.955Z,24.52
2023-05-22T23:18:49.826Z,21.83
2023-05-22T23:24:11.703Z,23.38
2023-05-22T23:29:33.563Z,24.85
2023-05-22T23:34:55.393Z,20.60
2023-05-22T23:40:17.436Z,18.00
2023-05-22T23:45:39.481Z,15.50
2023-05-22T23:51:03.040Z,20.00
2023-05-22T23:56:25.020Z,19.25
